ADDS TAF Board INFO
 
 

IDs: Format: Expanded Condensed

KMCO - Orlando Intl, FL, US

Issued at 1745 UTC 28 Jul 2014
Time1953Z28/21Z28/22Z28/23Z29/00Z29/01Z29/02Z29/03Z29/04Z29/05Z29/06Z29/07Z29/08Z29/09Z
TypeOBSPRVLPRVLPRVLPRVLPRVLPRVLPRVLPRVLPRVLPRVLPRVLPRVLPRVL
Vis10>6>6>6>6>6>6>6>6>6>6>6>6>6
Cig260--------------------------
CoverBKNSCTSCTSCTSCTSCTSCTSCTSCTSCTSCTSCTSCTSCT
FltCat--VFRVFRVFRVFRVFRVFRVFRVFRVFRVFRVFRVFRVFR
Wx--VCTS------------------------
WDir280280270270270250250250250250250250250250
WSpd1411999666666666
WGst----------------------------
R17/35
XWnd-14-11-9-9-9-6-6-6-6-6-6-6-6-6
HWnd-3-2-0-0-0222222222
R18/36
XWnd-14-11-9-9-9-6-6-6-6-6-6-6-6-6
HWnd-3-2-0-0-0222222222
Raw TAF
KMCO 281745Z 2818/2918 28011KT P6SM VCTS SCT040CB SCT150 SCT250
  FM282200 27009KT P6SM FEW050 SCT100 SCT250
  FM290100 25006KT P6SM SCT250
  FM291300 28012KT P6SM VCSH SCT040 BKN080 BKN250


Raw METAR
KMCO 281953Z 28014KT 10SM SCT043TCU BKN260 33/22 A2999 RMK AO2 SLP153 TCU W-N T03330222

TAF Board Legend

Hazard Green Yellow Red Magenta
Visibility (sm) >5 >2.99 >0.99 <=0.99
Ceiling (100 ft) >30 >9.99 >4.99 <=4.99
Wind Speed (kt) <10 <20 <30 >=30
Wind Gust (kt) <10 <20 <30 >=30
Weather No Wx Reported Light precipitation Moderate precipitation Heavy precipitation
Flight Category VFR MVFR IFR LIFR

Page loaded:  20:28 UTC  |   01:28 PM Pacific  |   02:28 PM Mountain  |   03:28 PM Central  |   04:28 PM Eastern

 

ADVISORIES

FORECASTS

FORECASTS

OBSERVATIONS

USER TOOLS

ABOUT US